Terminal Aerodrome Forecast
Issued by NWS

Home | Current Version | Previous Version | Graphics & Text | Print | Product List | Glossary On
Versions: 1 2 3 4 5 6 7 8 9 10 11 12 13 14 15 16 17 18 19 20 21 22 23 24 25 26
793
FTUS43 KABR 122337
TAFATY
TAF
KATY 122337Z 1300/1324 26011KT P6SM SCT200
     FM130700 27016G25KT P6SM BKN200
     FM131000 31021G33KT P6SM BKN080
     FM131400 33029G41KT P6SM OVC015=

USA.gov is the U.S. government's official web portal to all federal, state and local government web resources and services.